PDT,Max TemperatureF,Mean TemperatureF,Min TemperatureF,Max Dew PointF,MeanDew PointF,Min DewpointF,Max Humidity, Mean Humidity, Min Humidity, Max Sea Level PressureIn, Mean Sea Level PressureIn, Min Sea Level PressureIn, Max VisibilityMiles, Mean VisibilityMiles, Min VisibilityMiles, Max Wind SpeedMPH, Mean Wind SpeedMPH, Max Gust SpeedMPH,PrecipitationIn, CloudCover, Events, WindDirDegrees
2013-3-1,66,46,26,25,20,16,86,40,15,30.46,30.39,30.33,10,10,5,24,9,29,0.00,0,,122
2013-3-2,69,53,37,32,24,18,61,36,15,30.37,30.27,30.18,10,10,8,18,10,23,0.00,0,,110
2013-3-3,57,48,39,37,31,21,71,49,30,30.19,30.07,30.00,10,10,9,22,12,30,0.00,5,,302
2013-3-4,57,47,37,39,37,32,100,66,47,30.11,30.09,30.04,10,10,6,17,12,22,0.00,0,,318
2013-3-5,64,50,37,34,22,12,75,32,15,30.10,30.01,29.97,10,10,9,22,9,32,0.00,0,,237
2013-3-6,39,37,35,36,31,28,87,79,70,30.04,30.01,29.99,10,9,2,12,7,,0.00,4,Rain,294
2013-3-7,46,42,39,36,31,27,81,67,61,29.86,29.83,29.78,10,10,10,17,9,24,0.00,7,,31
2013-3-8,39,34,28,34,32,28,100,96,75,29.98,29.83,29.72,10,3,0,20,11,26,7.07,8,Fog-Rain-Snow,300
2013-3-9,35,32,28,36,33,28,100,99,87,30.29,30.15,29.98,10,4,0,16,12,22,0.02,7,Fog-Rain,307
2013-3-10,59,42,24,37,27,14,100,67,19,30.34,30.30,30.26,10,10,5,17,7,26,0.00,0,,133
2013-3-11,66,46,26,37,23,10,93,57,11,30.29,30.24,30.17,10,10,8,14,5,18,0.00,0,,115
2013-3-12,71,54,37,45,23,14,81,34,12,30.25,30.20,30.15,10,10,7,20,12,25,0.00,0,,117
2013-3-13,75,54,32,28,24,18,80,37,11,30.29,30.24,30.21,10,10,9,18,7,25,0.00,0,,111
2013-3-14,80,58,35,48,34,27,87,48,14,30.26,30.23,30.19,10,9,5,20,6,24,0.00,0,,93
2013-3-15,69,55,41,52,45,36,87,71,40,30.20,30.13,30.08,10,6,2,21,7,28,0.00,0,,303
2013-3-16,62,54,46,48,44,39,100,73,48,30.09,30.06,30.03,10,7,2,23,14,32,0.00,0,,300
2013-3-17,59,50,41,46,37,34,87,62,42,30.13,30.07,30.03,10,10,7,23,17,30,0.00,0,,295
2013-3-18,55,46,39,39,36,28,93,71,36,30.13,30.08,30.06,10,10,8,15,11,,0.00,1,,304
2013-3-19,,,,,,,,,,,,,,,,,,,,,,
2013-3-20,,,,,,,,,,,,,,,,,,,,,,
2013-3-21,51,48,44,45,41,39,87,82,71,29.99,29.96,29.94,10,8,2,30,19,40,0.00,8,,304
2013-3-22,51,43,35,41,36,32,100,74,47,30.06,29.99,29.95,10,9,4,21,13,25,0.00,4,,302
2013-3-23,59,46,32,36,28,23,100,57,31,30.11,30.07,30.04,10,9,5,17,7,,0.00,0,,299
2013-3-24,64,48,32,32,28,19,70,45,24,30.12,30.07,30.02,10,10,8,17,8,22,0.00,0,,317
2013-3-25,46,40,33,32,29,27,75,61,53,30.05,30.03,30.01,10,10,10,9,5,,0.00,0,,257
2013-3-26,,,,,,,,,,,,,,,,,,,,,,
2013-3-27,62,55,48,41,37,36,76,52,39,30.06,30.01,29.98,10,10,8,22,14,28,0.00,1,,305
2013-3-28,62,53,44,46,41,32,100,70,32,30.15,30.09,30.04,10,10,5,21,13,26,0.00,3,,307
2013-3-29,73,52,32,45,35,23,100,58,17,30.16,30.14,30.10,10,10,8,16,4,22,0.00,0,,113
2013-3-30,71,54,37,39,33,25,71,45,23,30.15,30.11,30.05,10,10,8,13,5,20,0.00,1,,306
2013-3-31,57,52,44,46,43,37,100,78,51,30.13,30.09,30.05,10,9,2,17,10,21,0.07,7,Rain,300